Time;durP1;ratioP1;P1;durP2;ratioP2;P2;SDS_P1;SDS_P2;PMS_P1;PMS_P2;Temp;Humidity;BMP_temperature;BMP_pressure;BME280_temperature;BME280_humidity;BME280_pressure;Samples;Min_cycle;Max_cycle;Signal;HPM_P1;HPM_P2
2023/07/03 15:48:47;;;;;;;11.00;6.57;;;;;;;27.76;61.38;94606.53;4913619;29;20571;-79
2023/07/03 15:51:17;;;;;;;9.40;7.37;;;;;;;27.61;59.22;94615.13;4917888;29;20448;-80
2023/07/03 15:53:45;;;;;;;8.10;7.30;;;;;;;27.68;59.23;94615.00;4917506;29;20464;-83
2023/07/03 15:56:14;;;;;;;7.57;6.90;;;;;;;27.72;60.22;94599.97;4917808;29;20455;-83
2023/07/03 15:59:01;;;;;;;10.40;6.27;;;;;;;27.71;60.59;94623.41;4917679;29;20441;-82
2023/07/03 16:01:29;;;;;;;7.73;6.33;;;;;;;27.59;61.30;94621.81;4895758;29;20944;-81
2023/07/03 16:04:01;;;;;;;6.47;5.87;;;;;;;27.49;62.62;94622.44;4896356;29;20549;-81
2023/07/03 16:06:32;;;;;;;8.40;7.17;;;;;;;27.55;62.74;94620.66;4896684;29;20541;-82
2023/07/03 16:08:59;;;;;;;8.93;6.40;;;;;;;27.46;64.39;94618.34;4896269;29;20998;-81
2023/07/03 16:11:27;;;;;;;7.30;6.30;;;;;;;27.39;62.95;94622.25;4896746;29;20443;-88
2023/07/03 16:13:58;;;;;;;7.53;6.83;;;;;;;27.40;63.11;94618.50;4896735;29;20472;-86
2023/07/03 16:16:25;;;;;;;8.47;6.33;;;;;;;27.22;63.76;94624.91;4896773;29;20469;-86
2023/07/03 16:25:51;;;;;;;7.43;6.70;;;;;;;27.15;65.41;94627.72;4917263;29;20464;-84
2023/07/03 16:28:18;;;;;;;6.67;5.97;;;;;;;27.08;65.47;94632.41;4917336;29;20488;-84
2023/07/03 16:31:01;;;;;;;8.90;7.33;;;;;;;27.13;66.69;94624.44;4917459;29;20448;-82
2023/07/03 16:33:29;;;;;;;7.33;6.63;;;;;;;27.25;67.40;94627.09;4917489;29;20799;-87
2023/07/03 16:35:56;;;;;;;12.20;7.13;;;;;;;27.15;68.88;94633.09;4917858;29;20440;-86
2023/07/03 16:41:46;;;;;;;7.17;6.43;;;;;;;27.21;68.56;94641.31;4917894;29;20463;-88
2023/07/03 16:44:13;;;;;;;7.57;6.87;;;;;;;27.13;67.72;94642.47;4921883;29;20974;-88
2023/07/03 16:46:39;;;;;;;8.63;6.67;;;;;;;27.10;67.00;94646.47;4921845;29;20466;-87
2023/07/03 16:49:06;;;;;;;10.57;7.13;;;;;;;27.04;68.23;94652.00;4921875;29;20487;-87
2023/07/03 16:51:33;;;;;;;7.97;6.57;;;;;;;26.88;68.99;94645.41;4921512;29;20842;-86
2023/07/03 16:54:01;;;;;;;9.30;7.50;;;;;;;26.98;69.47;94651.03;4921443;29;20456;-85
2023/07/03 16:56:32;;;;;;;9.20;6.97;;;;;;;26.94;69.74;94654.44;4921406;29;21022;-81
2023/07/03 16:59:00;;;;;;;15.23;6.87;;;;;;;26.93;70.30;94650.13;4921221;29;20439;-88
2023/07/03 17:01:29;;;;;;;8.60;7.30;;;;;;;26.94;70.05;94655.28;4916697;29;20452;-87
2023/07/03 17:03:56;;;;;;;7.57;6.53;;;;;;;26.71;69.64;94658.81;4920607;29;20919;-86
2023/07/03 17:06:26;;;;;;;10.73;7.10;;;;;;;26.42;70.20;94652.50;4919180;29;20451;-87
2023/07/03 17:08:54;;;;;;;6.67;6.07;;;;;;;26.33;71.03;94663.81;4921426;29;20532;-88
2023/07/03 17:11:23;;;;;;;7.80;6.90;;;;;;;26.25;70.90;94659.56;4921456;29;20466;-87
2023/07/03 17:13:50;;;;;;;6.77;6.07;;;;;;;26.17;70.37;94659.94;4920934;29;20451;-85
2023/07/03 17:16:19;;;;;;;6.20;5.57;;;;;;;26.04;70.38;94670.91;4920953;29;20479;-86
2023/07/03 17:18:46;;;;;;;13.80;6.73;;;;;;;26.05;71.28;94667.19;4920710;29;20884;-86
2023/07/03 17:21:13;;;;;;;7.70;7.00;;;;;;;26.09;71.29;94665.66;4920543;29;20835;-86
2023/07/03 17:23:41;;;;;;;8.33;6.60;;;;;;;26.03;71.50;94671.97;4920338;29;20543;-87
2023/07/03 17:26:14;;;;;;;7.17;6.47;;;;;;;26.01;71.69;94669.47;4886996;29;20459;-85
2023/07/03 17:28:41;;;;;;;7.73;7.03;;;;;;;25.96;72.25;94663.97;4920407;29;20986;-87
2023/07/03 17:31:09;;;;;;;10.23;8.23;;;;;;;25.84;72.75;94674.72;4920592;29;20454;-89
2023/07/03 17:33:38;;;;;;;7.77;6.10;;;;;;;26.02;72.78;94671.16;4912805;29;20454;-87
2023/07/03 17:36:07;;;;;;;9.13;7.20;;;;;;;25.97;72.55;94675.56;4916118;29;20923;-87
2023/07/03 17:38:34;;;;;;;9.67;7.40;;;;;;;25.98;72.92;94682.56;4913029;29;20467;-87
2023/07/03 17:41:01;;;;;;;8.00;6.30;;;;;;;26.02;72.92;94681.06;4920879;29;20464;-86
2023/07/03 17:43:28;;;;;;;7.07;6.37;;;;;;;25.91;72.37;94678.13;4920585;29;20817;-85
2023/07/03 17:45:55;;;;;;;6.73;5.87;;;;;;;26.01;72.54;94684.78;4920109;29;20458;-87
2023/07/03 17:48:22;;;;;;;8.20;6.50;;;;;;;26.09;72.23;94684.47;4920625;29;20490;-86
2023/07/03 17:50:50;;;;;;;8.90;6.47;;;;;;;26.21;72.25;94690.69;4920789;29;20826;-88
2023/07/03 17:53:21;;;;;;;7.50;6.80;;;;;;;26.22;71.21;94681.56;4920588;29;20468;-88
2023/07/03 17:55:52;;;;;;;13.53;6.37;;;;;;;26.32;70.47;94692.59;4920586;29;20867;-88
2023/07/03 17:58:20;;;;;;;6.93;6.33;;;;;;;26.37;70.21;94700.81;4920295;29;20511;-89
2023/07/03 18:00:48;;;;;;;8.03;6.20;;;;;;;26.41;69.38;94701.16;4910660;29;20444;-90
2023/07/03 18:03:15;;;;;;;8.00;6.27;;;;;;;26.40;68.89;94696.84;4915179;29;20461;-89
2023/07/03 18:05:42;;;;;;;9.13;6.93;;;;;;;26.40;68.65;94697.66;4921388;29;20460;-90
2023/07/03 18:08:11;;;;;;;8.80;6.03;;;;;;;26.43;70.39;94704.44;4921570;29;20566;-88
2023/07/03 18:10:38;;;;;;;10.63;8.17;;;;;;;26.43;72.33;94699.88;4913435;29;20472;-87
2023/07/03 18:13:05;;;;;;;7.10;6.40;;;;;;;26.47;71.54;94702.91;4915874;29;20472;-87
2023/07/03 18:15:31;;;;;;;10.10;7.33;;;;;;;26.47;71.59;94705.63;4919078;29;20943;-87
2023/07/03 18:17:58;;;;;;;8.47;6.50;;;;;;;26.47;70.62;94711.81;4901481;29;20449;-88
2023/07/03 18:20:26;;;;;;;6.90;6.30;;;;;;;26.46;70.35;94709.34;4912412;29;20456;-87
2023/07/03 18:22:53;;;;;;;7.83;6.37;;;;;;;26.48;69.87;94718.03;4919838;29;20951;-88
2023/07/03 18:25:21;;;;;;;6.93;6.20;;;;;;;26.44;69.88;94714.97;4920026;29;20468;-87
2023/07/03 18:27:49;;;;;;;8.80;6.47;;;;;;;26.48;69.40;94723.41;4919771;29;20465;-88
2023/07/03 18:30:16;;;;;;;8.83;7.20;;;;;;;26.43;68.81;94721.41;4920003;29;20460;-87
2023/07/03 18:32:43;;;;;;;6.87;6.27;;;;;;;26.22;69.08;94719.22;4920463;29;20452;-88
2023/07/03 18:35:10;;;;;;;14.67;6.50;;;;;;;25.96;70.83;94730.38;4919633;29;20464;-88
2023/07/03 18:37:37;;;;;;;8.37;6.40;;;;;;;25.76;71.68;94726.13;4919319;29;20452;-87
2023/07/03 18:40:05;;;;;;;12.70;7.13;;;;;;;25.78;72.18;94723.22;4920022;29;20440;-85
2023/07/03 18:42:34;;;;;;;13.50;6.37;;;;;;;25.82;72.66;94738.66;4919411;29;20462;-86
2023/07/03 18:45:00;;;;;;;12.10;7.27;;;;;;;25.92;74.16;94736.22;4919469;29;20456;-85
2023/07/03 18:47:29;;;;;;;8.13;7.10;;;;;;;25.95;73.21;94745.69;4919506;29;20484;-86
2023/07/03 18:49:56;;;;;;;10.23;6.80;;;;;;;25.96;75.02;94743.81;4933303;29;20480;-86
2023/07/03 18:52:23;;;;;;;10.73;6.93;;;;;;;25.86;73.51;94730.94;4941800;29;20459;-85
2023/07/03 18:54:50;;;;;;;10.53;7.40;;;;;;;25.85;74.00;94745.44;4928385;29;20474;-86
2023/07/03 18:57:19;;;;;;;8.33;7.53;;;;;;;25.82;74.96;94752.09;4920488;29;20476;-88
2023/07/03 18:59:47;;;;;;;10.23;7.90;;;;;;;25.83;76.07;94756.41;4919778;29;20444;-88
2023/07/03 19:02:15;;;;;;;9.33;8.33;;;;;;;25.87;80.21;94760.28;4919368;29;20919;-88
2023/07/03 19:04:42;;;;;;;9.13;7.03;;;;;;;25.87;78.58;94754.91;4898827;29;20504;-84
2023/07/03 19:10:31;;;;;;;12.00;6.90;;;;;;;25.87;77.16;94759.47;4898781;29;20995;-85
2023/07/03 19:12:58;;;;;;;10.10;7.70;;;;;;;25.85;78.20;94772.31;4899830;29;20461;-87
2023/07/03 19:15:26;;;;;;;11.60;7.77;;;;;;;25.85;77.64;94770.44;4901251;29;20457;-87
2023/07/03 19:17:53;;;;;;;13.43;9.60;;;;;;;25.83;78.23;94774.41;4919501;29;20471;-87
2023/07/03 19:37:17;;;;;;;7.20;5.83;;;;;;;25.54;77.81;94792.94;4916235;29;20528;-82
2023/07/03 19:39:44;;;;;;;11.37;7.40;;;;;;;25.51;77.50;94796.09;4909465;29;20922;-84
2023/07/03 19:42:11;;;;;;;7.00;6.40;;;;;;;25.48;77.72;94801.09;4914985;29;20447;-83
2023/07/03 19:44:39;;;;;;;8.93;6.20;;;;;;;25.44;78.29;94800.69;4917200;29;20452;-83
2023/07/03 19:47:06;;;;;;;7.77;6.93;;;;;;;25.32;78.68;94800.63;4916848;29;20495;-83
2023/07/03 19:49:33;;;;;;;9.07;6.60;;;;;;;25.29;78.52;94811.00;4917488;29;20483;-83
2023/07/03 19:52:00;;;;;;;6.83;6.23;;;;;;;25.24;78.81;94808.97;4917962;29;20432;-82
2023/07/03 19:54:28;;;;;;;10.10;7.30;;;;;;;25.18;79.17;94809.06;4917736;29;20842;-83
2023/07/03 19:56:55;;;;;;;9.40;7.13;;;;;;;25.13;79.02;94812.38;4884889;29;20461;-83
2023/07/03 19:59:22;;;;;;;7.83;6.97;;;;;;;25.08;79.23;94814.91;4912474;29;20456;-83
2023/07/03 20:01:49;;;;;;;8.10;6.93;;;;;;;25.04;79.06;94802.16;4907052;29;20491;-83
2023/07/03 20:04:16;;;;;;;6.63;6.10;;;;;;;24.99;78.77;94811.69;4917672;29;20452;-83
2023/07/03 20:06:43;;;;;;;7.33;6.73;;;;;;;24.97;78.94;94818.31;4917566;29;20767;-84
2023/07/03 20:09:10;;;;;;;7.93;7.13;;;;;;;24.91;78.83;94816.50;4917195;29;20476;-83
2023/07/03 20:11:38;;;;;;;7.30;6.60;;;;;;;24.87;79.64;94823.38;4914600;29;20436;-83
2023/07/03 20:14:05;;;;;;;6.20;5.60;;;;;;;24.83;79.31;94817.59;4905940;29;20432;-83
2023/07/03 20:16:32;;;;;;;7.10;6.50;;;;;;;24.79;79.39;94821.75;4901931;29;20440;-83
2023/07/03 20:18:59;;;;;;;8.50;6.50;;;;;;;24.76;79.61;94816.81;4917507;29;20464;-85
2023/07/03 20:21:26;;;;;;;8.80;6.47;;;;;;;24.73;79.76;94827.19;4917448;29;20847;-83
2023/07/03 20:23:54;;;;;;;9.03;7.20;;;;;;;24.69;79.27;94826.81;4917479;29;20447;-85
2023/07/03 20:26:21;;;;;;;6.37;5.77;;;;;;;24.62;80.02;94820.69;4917341;29;20443;-82
2023/07/03 20:28:49;;;;;;;6.60;6.00;;;;;;;24.61;80.07;94824.41;4916969;29;20978;-82
2023/07/03 20:31:16;;;;;;;7.73;6.10;;;;;;;24.57;79.79;94823.97;4917267;29;20842;-82
2023/07/03 20:33:43;;;;;;;6.90;6.20;;;;;;;24.50;79.90;94823.22;4917217;29;20946;-83
2023/07/03 20:36:12;;;;;;;9.73;6.60;;;;;;;24.42;80.67;94815.44;4917044;29;20444;-83
2023/07/03 20:38:39;;;;;;;6.60;5.77;;;;;;;24.37;80.01;94826.00;4917248;29;20462;-83
2023/07/03 20:41:09;;;;;;;7.10;6.40;;;;;;;24.34;80.29;94829.94;4917850;29;20448;-83
2023/07/03 20:43:36;;;;;;;8.13;6.20;;;;;;;24.27;80.57;94833.66;4917707;29;20440;-89
2023/07/03 20:46:07;;;;;;;10.50;6.43;;;;;;;24.26;80.89;94838.19;4918127;29;20474;-90
2023/07/03 20:48:37;;;;;;;6.47;5.87;;;;;;;24.20;80.95;94838.25;4901745;29;20480;-89
2023/07/03 20:51:11;;;;;;;6.63;6.10;;;;;;;24.03;81.54;94844.13;4866861;29;20449;-88
2023/07/03 20:56:26;;;;;;;6.70;6.00;;;;;;;24.00;81.78;94831.16;4838911;29;20436;-84
2023/07/03 20:58:54;;;;;;;5.97;5.47;;;;;;;24.00;81.62;94827.66;4825340;29;20632;-85
2023/07/03 21:01:25;;;;;;;7.00;6.20;;;;;;;23.95;81.65;94833.63;4840266;29;20458;-83
2023/07/03 21:03:53;;;;;;;6.17;5.57;;;;;;;23.92;81.79;94830.56;4840285;29;20459;-82
2023/07/03 21:06:21;;;;;;;7.77;5.90;;;;;;;23.85;81.62;94822.56;4840379;29;20450;-83
2023/07/03 21:08:49;;;;;;;6.40;5.80;;;;;;;23.81;81.71;94825.88;4840173;29;20467;-84
2023/07/03 21:11:18;;;;;;;7.77;6.37;;;;;;;23.76;82.24;94821.97;4840179;29;20969;-84
2023/07/03 21:13:47;;;;;;;6.73;6.03;;;;;;;23.73;81.71;94822.41;4840036;29;20451;-84
2023/07/03 21:16:15;;;;;;;6.70;6.10;;;;;;;23.70;81.55;94828.16;4825405;29;20476;-84
2023/07/03 21:18:44;;;;;;;5.93;5.37;;;;;;;23.66;81.75;94821.59;4840028;29;20532;-84
2023/07/03 21:21:11;;;;;;;6.43;5.83;;;;;;;23.61;82.35;94823.28;4840125;29;20446;-83
2023/07/03 21:23:38;;;;;;;5.90;5.40;;;;;;;23.57;83.13;94825.56;4840383;29;20973;-84
2023/07/03 21:26:06;;;;;;;6.63;6.03;;;;;;;23.55;83.34;94824.91;4840040;29;20439;-84
2023/07/03 21:28:36;;;;;;;6.37;5.73;;;;;;;23.53;83.36;94826.97;4841933;29;20442;-83
2023/07/03 21:31:03;;;;;;;12.50;6.27;;;;;;;23.46;83.23;94818.97;4843515;29;20443;-83
2023/07/03 21:33:31;;;;;;;9.70;6.03;;;;;;;23.46;83.40;94823.50;4869836;29;20808;-83
2023/07/03 21:36:07;;;;;;;6.33;5.77;;;;;;;23.41;83.31;94821.44;4901128;29;20812;-84
2023/07/03 21:38:34;;;;;;;7.00;5.70;;;;;;;23.39;83.48;94820.00;4901345;29;20780;-83
2023/07/03 21:41:02;;;;;;;11.23;6.90;;;;;;;23.37;83.59;94825.56;4901075;29;20446;-84
2023/07/03 21:43:29;;;;;;;7.37;6.50;;;;;;;23.31;83.93;94818.38;4901337;29;20440;-83
2023/07/03 21:46:03;;;;;;;8.70;6.53;;;;;;;23.28;83.86;94818.81;4901129;29;21099;-83
2023/07/03 21:48:30;;;;;;;8.30;6.53;;;;;;;23.27;83.63;94822.53;4917254;29;20520;-83
2023/07/03 21:50:57;;;;;;;8.43;5.90;;;;;;;23.23;83.42;94815.94;4919614;29;21008;-84
2023/07/03 21:53:26;;;;;;;5.90;5.40;;;;;;;23.20;83.60;94819.03;4920334;29;20434;-84
2023/07/03 21:55:53;;;;;;;6.30;5.70;;;;;;;23.15;83.84;94814.31;4920025;29;20505;-83
2023/07/03 21:58:20;;;;;;;9.17;6.57;;;;;;;23.15;83.78;94810.81;4919883;29;20460;-83
2023/07/03 22:00:48;;;;;;;9.67;6.77;;;;;;;23.06;84.03;94809.38;4919504;29;20456;-84
2023/07/03 22:06:37;;;;;;;6.03;5.23;;;;;;;22.95;84.47;94823.41;4919805;29;20498;-83
2023/07/03 22:09:06;;;;;;;9.50;5.60;;;;;;;22.90;84.58;94823.22;4919783;29;20472;-84
2023/07/03 22:11:32;;;;;;;6.73;5.30;;;;;;;22.87;84.72;94821.78;4919627;29;20502;-84
2023/07/03 22:13:59;;;;;;;6.37;5.73;;;;;;;22.86;85.11;94818.28;4919839;29;20457;-83
2023/07/03 22:16:26;;;;;;;7.47;6.20;;;;;;;22.84;85.09;94827.50;4918907;29;20454;-84
2023/07/03 22:18:54;;;;;;;16.13;6.80;;;;;;;22.84;85.18;94828.38;4918999;29;20446;-84
2023/07/03 22:21:21;;;;;;;6.20;5.70;;;;;;;22.83;85.38;94826.69;4918878;29;20496;-84
2023/07/03 22:23:48;;;;;;;8.00;6.00;;;;;;;22.83;85.54;94816.00;4919019;29;20468;-84
2023/07/03 22:26:17;;;;;;;7.13;6.33;;;;;;;22.84;85.45;94819.50;4919628;29;20470;-84
2023/07/03 22:28:44;;;;;;;7.40;5.43;;;;;;;22.80;85.54;94820.91;4919410;29;20451;-84
2023/07/03 22:31:11;;;;;;;6.10;5.37;;;;;;;22.78;85.43;94823.78;4919003;29;20498;-84
2023/07/03 22:33:38;;;;;;;6.90;6.20;;;;;;;22.77;85.28;94824.81;4919021;29;20472;-84
2023/07/03 22:36:07;;;;;;;8.07;6.73;;;;;;;22.73;85.54;94826.25;4919375;29;20445;-85
2023/07/03 22:38:34;;;;;;;12.23;8.23;;;;;;;22.71;85.44;94822.16;4924046;29;20446;-83
2023/07/03 22:41:01;;;;;;;10.53;7.37;;;;;;;22.71;85.57;94819.47;4922332;29;20454;-84
2023/07/03 22:43:30;;;;;;;8.73;7.83;;;;;;;22.66;85.74;94817.44;4919460;29;20457;-84
2023/07/03 22:45:57;;;;;;;11.40;6.47;;;;;;;22.66;85.69;94820.09;4919621;29;20948;-84
2023/07/03 22:48:26;;;;;;;10.40;6.87;;;;;;;22.63;85.70;94815.16;4918755;29;20482;-84
2023/07/03 22:50:54;;;;;;;11.93;6.50;;;;;;;22.58;85.98;94808.78;4918659;29;20482;-84
2023/07/03 22:53:21;;;;;;;7.80;5.90;;;;;;;22.54;86.20;94827.06;4884933;29;20509;-84
2023/07/03 22:55:51;;;;;;;8.07;6.40;;;;;;;22.51;86.28;94828.31;4918434;29;20449;-84
2023/07/03 22:58:18;;;;;;;6.13;5.60;;;;;;;22.46;86.59;94827.28;4918750;29;20714;-83
2023/07/03 23:00:46;;;;;;;7.00;6.30;;;;;;;22.42;86.69;94823.38;4918641;29;20454;-83
2023/07/03 23:03:13;;;;;;;6.83;6.20;;;;;;;22.38;86.73;94817.63;4918389;29;20441;-84
2023/07/03 23:05:44;;;;;;;11.33;6.03;;;;;;;22.37;87.05;94820.50;4918370;29;20497;-83
2023/07/03 23:08:12;;;;;;;8.70;5.67;;;;;;;22.32;86.92;94817.63;4918353;29;20919;-83
2023/07/03 23:10:38;;;;;;;13.53;7.63;;;;;;;22.33;86.96;94813.91;4870292;29;20521;-84
2023/07/03 23:13:05;;;;;;;16.07;8.50;;;;;;;22.29;87.27;94816.19;4918276;29;20511;-84
2023/07/03 23:32:24;;;;;;;13.47;7.23;;;;;;;22.23;86.95;94825.81;4917950;29;20428;-84
2023/07/03 23:34:51;;;;;;;8.40;6.97;;;;;;;22.18;86.82;94817.59;4917776;29;20806;-84
2023/07/03 23:37:20;;;;;;;6.70;5.70;;;;;;;22.11;86.96;94821.28;4917805;29;20481;-83
2023/07/03 23:39:47;;;;;;;7.57;6.30;;;;;;;22.08;87.24;94825.19;4917864;29;20449;-83
2023/07/03 23:42:14;;;;;;;10.03;6.00;;;;;;;22.06;87.43;94829.09;4917965;29;20538;-84
2023/07/03 23:44:41;;;;;;;6.73;6.03;;;;;;;22.05;87.50;94827.44;4918301;29;20951;-83
2023/07/03 23:47:10;;;;;;;6.80;5.30;;;;;;;22.01;87.68;94832.34;4918190;29;20492;-83
2023/07/03 23:49:39;;;;;;;9.63;7.63;;;;;;;21.96;87.66;94832.09;4910572;29;20546;-83
2023/07/03 23:52:06;;;;;;;6.50;5.90;;;;;;;21.92;87.89;94838.88;4917542;29;20489;-84
2023/07/03 23:54:33;;;;;;;6.70;6.10;;;;;;;21.91;87.86;94842.56;4918436;29;20448;-84
2023/07/03 23:57:03;;;;;;;9.80;6.43;;;;;;;21.84;87.75;94847.91;4917647;29;20446;-84
2023/07/03 23:59:30;;;;;;;8.20;6.13;;;;;;;21.81;88.26;94850.16;4917508;29;20873;-83
